sensor_id;sensor_type;location;lat;lon;timestamp;temperature;humidity
6098;DHT22;3077;50.922;6.584;2023-09-19T00:00:37;16.90;99.90
6098;DHT22;3077;50.922;6.584;2023-09-19T00:03:03;16.90;99.90
6098;DHT22;3077;50.922;6.584;2023-09-19T00:05:34;16.80;99.90
6098;DHT22;3077;50.922;6.584;2023-09-19T00:08:00;16.80;99.90
6098;DHT22;3077;50.922;6.584;2023-09-19T00:10:30;16.80;99.90
6098;DHT22;3077;50.922;6.584;2023-09-19T00:13:03;16.80;99.90
6098;DHT22;3077;50.922;6.584;2023-09-19T00:15:37;16.80;99.90
6098;DHT22;3077;50.922;6.584;2023-09-19T00:18:04;16.70;99.90
6098;DHT22;3077;50.922;6.584;2023-09-19T00:20:36;16.70;99.90
6098;DHT22;3077;50.922;6.584;2023-09-19T00:23:02;16.70;99.90
6098;DHT22;3077;50.922;6.584;2023-09-19T00:25:30;16.80;99.90
6098;DHT22;3077;50.922;6.584;2023-09-19T00:27:57;16.90;99.90
6098;DHT22;3077;50.922;6.584;2023-09-19T00:30:23;16.90;99.90
6098;DHT22;3077;50.922;6.584;2023-09-19T00:32:50;16.90;99.90
6098;DHT22;3077;50.922;6.584;2023-09-19T00:35:20;16.90;99.90
6098;DHT22;3077;50.922;6.584;2023-09-19T00:37:50;16.90;99.90
6098;DHT22;3077;50.922;6.584;2023-09-19T00:40:15;17.00;99.90
6098;DHT22;3077;50.922;6.584;2023-09-19T00:42:42;17.00;99.90
6098;DHT22;3077;50.922;6.584;2023-09-19T00:45:10;17.10;99.90
6098;DHT22;3077;50.922;6.584;2023-09-19T00:47:43;17.10;99.90
6098;DHT22;3077;50.922;6.584;2023-09-19T00:50:10;17.10;99.90
6098;DHT22;3077;50.922;6.584;2023-09-19T00:52:36;17.10;99.90
6098;DHT22;3077;50.922;6.584;2023-09-19T00:55:08;17.00;99.90
6098;DHT22;3077;50.922;6.584;2023-09-19T00:57:35;17.00;99.90
6098;DHT22;3077;50.922;6.584;2023-09-19T01:00:02;17.00;99.90
6098;DHT22;3077;50.922;6.584;2023-09-19T01:02:33;17.00;99.90
6098;DHT22;3077;50.922;6.584;2023-09-19T01:04:59;17.00;99.90
6098;DHT22;3077;50.922;6.584;2023-09-19T01:07:30;17.10;99.90
6098;DHT22;3077;50.922;6.584;2023-09-19T01:10:03;17.00;99.90
6098;DHT22;3077;50.922;6.584;2023-09-19T01:13:55;17.00;99.90
6098;DHT22;3077;50.922;6.584;2023-09-19T01:16:16;17.00;99.90
6098;DHT22;3077;50.922;6.584;2023-09-19T01:19:14;16.90;99.90
6098;DHT22;3077;50.922;6.584;2023-09-19T01:21:57;16.90;99.90
6098;DHT22;3077;50.922;6.584;2023-09-19T01:24:54;16.80;99.90
6098;DHT22;3077;50.922;6.584;2023-09-19T01:30:18;16.80;99.90
6098;DHT22;3077;50.922;6.584;2023-09-19T01:32:49;16.70;99.90
6098;DHT22;3077;50.922;6.584;2023-09-19T01:35:18;16.70;99.90
6098;DHT22;3077;50.922;6.584;2023-09-19T01:37:44;16.70;99.90
6098;DHT22;3077;50.922;6.584;2023-09-19T01:40:12;16.70;99.90
6098;DHT22;3077;50.922;6.584;2023-09-19T01:45:29;16.60;99.90
6098;DHT22;3077;50.922;6.584;2023-09-19T01:48:49;16.60;99.90
6098;DHT22;3077;50.922;6.584;2023-09-19T01:50:59;16.60;99.90
6098;DHT22;3077;50.922;6.584;2023-09-19T01:53:28;16.60;99.90
6098;DHT22;3077;50.922;6.584;2023-09-19T01:55:57;16.50;99.90
6098;DHT22;3077;50.922;6.584;2023-09-19T01:58:46;16.50;99.90
6098;DHT22;3077;50.922;6.584;2023-09-19T02:01:17;16.40;99.90
6098;DHT22;3077;50.922;6.584;2023-09-19T02:03:46;16.40;99.90
6098;DHT22;3077;50.922;6.584;2023-09-19T02:06:16;16.30;99.90
6098;DHT22;3077;50.922;6.584;2023-09-19T02:08:43;16.30;99.90
6098;DHT22;3077;50.922;6.584;2023-09-19T02:11:10;16.20;99.90
6098;DHT22;3077;50.922;6.584;2023-09-19T02:13:36;16.20;99.90
6098;DHT22;3077;50.922;6.584;2023-09-19T02:16:03;16.10;99.90
6098;DHT22;3077;50.922;6.584;2023-09-19T02:18:30;16.10;99.90
6098;DHT22;3077;50.922;6.584;2023-09-19T02:20:56;16.10;99.90
6098;DHT22;3077;50.922;6.584;2023-09-19T02:23:24;16.00;99.90
6098;DHT22;3077;50.922;6.584;2023-09-19T02:25:53;16.00;99.90
6098;DHT22;3077;50.922;6.584;2023-09-19T02:28:19;16.00;99.90
6098;DHT22;3077;50.922;6.584;2023-09-19T02:30:48;16.00;99.90
6098;DHT22;3077;50.922;6.584;2023-09-19T02:33:14;15.90;99.90
6098;DHT22;3077;50.922;6.584;2023-09-19T02:35:40;15.90;99.90
6098;DHT22;3077;50.922;6.584;2023-09-19T02:38:06;15.80;99.90
6098;DHT22;3077;50.922;6.584;2023-09-19T02:40:37;15.80;99.90
6098;DHT22;3077;50.922;6.584;2023-09-19T02:43:02;15.80;99.90
6098;DHT22;3077;50.922;6.584;2023-09-19T02:45:28;15.80;99.90
6098;DHT22;3077;50.922;6.584;2023-09-19T02:47:56;15.70;99.90
6098;DHT22;3077;50.922;6.584;2023-09-19T02:50:21;15.60;99.90
6098;DHT22;3077;50.922;6.584;2023-09-19T02:52:47;15.60;99.90
6098;DHT22;3077;50.922;6.584;2023-09-19T02:55:18;15.60;99.90
6098;DHT22;3077;50.922;6.584;2023-09-19T02:57:49;15.70;99.90
6098;DHT22;3077;50.922;6.584;2023-09-19T03:00:17;15.60;99.90
6098;DHT22;3077;50.922;6.584;2023-09-19T03:02:54;15.60;99.90
6098;DHT22;3077;50.922;6.584;2023-09-19T03:05:21;15.60;99.90
6098;DHT22;3077;50.922;6.584;2023-09-19T03:07:47;15.50;99.90
6098;DHT22;3077;50.922;6.584;2023-09-19T03:10:19;15.50;99.90
6098;DHT22;3077;50.922;6.584;2023-09-19T03:12:49;15.60;99.90
6098;DHT22;3077;50.922;6.584;2023-09-19T03:15:15;15.50;99.90
6098;DHT22;3077;50.922;6.584;2023-09-19T03:17:47;15.50;99.90
6098;DHT22;3077;50.922;6.584;2023-09-19T03:20:14;15.50;99.90
6098;DHT22;3077;50.922;6.584;2023-09-19T03:22:43;15.50;99.90
6098;DHT22;3077;50.922;6.584;2023-09-19T03:25:08;15.40;99.90
6098;DHT22;3077;50.922;6.584;2023-09-19T03:27:35;15.40;99.90
6098;DHT22;3077;50.922;6.584;2023-09-19T03:30:01;15.40;99.90
6098;DHT22;3077;50.922;6.584;2023-09-19T03:32:30;15.40;99.90
6098;DHT22;3077;50.922;6.584;2023-09-19T03:34:57;15.40;99.90
6098;DHT22;3077;50.922;6.584;2023-09-19T03:37:23;15.40;99.90
6098;DHT22;3077;50.922;6.584;2023-09-19T03:39:49;15.40;99.90
6098;DHT22;3077;50.922;6.584;2023-09-19T03:42:14;15.40;99.90
6098;DHT22;3077;50.922;6.584;2023-09-19T03:44:40;15.40;99.90
6098;DHT22;3077;50.922;6.584;2023-09-19T03:47:06;15.40;99.90
6098;DHT22;3077;50.922;6.584;2023-09-19T03:49:32;15.40;99.90
6098;DHT22;3077;50.922;6.584;2023-09-19T03:51:59;15.40;99.90
6098;DHT22;3077;50.922;6.584;2023-09-19T03:54:24;15.40;99.90
6098;DHT22;3077;50.922;6.584;2023-09-19T03:56:50;15.40;99.90
6098;DHT22;3077;50.922;6.584;2023-09-19T03:59:16;15.40;99.90
6098;DHT22;3077;50.922;6.584;2023-09-19T04:01:43;15.30;99.90
6098;DHT22;3077;50.922;6.584;2023-09-19T04:04:09;15.30;99.90
6098;DHT22;3077;50.922;6.584;2023-09-19T04:06:35;15.30;99.90
6098;DHT22;3077;50.922;6.584;2023-09-19T04:09:02;15.30;99.90
6098;DHT22;3077;50.922;6.584;2023-09-19T04:11:29;15.30;99.90
6098;DHT22;3077;50.922;6.584;2023-09-19T04:13:55;15.30;99.90
6098;DHT22;3077;50.922;6.584;2023-09-19T04:16:21;15.30;99.90
6098;DHT22;3077;50.922;6.584;2023-09-19T04:18:47;15.30;99.90
6098;DHT22;3077;50.922;6.584;2023-09-19T04:21:12;15.20;99.90
6098;DHT22;3077;50.922;6.584;2023-09-19T04:23:38;15.20;99.90
6098;DHT22;3077;50.922;6.584;2023-09-19T04:26:04;15.20;99.90
6098;DHT22;3077;50.922;6.584;2023-09-19T04:28:30;15.20;99.90
6098;DHT22;3077;50.922;6.584;2023-09-19T04:30:57;15.30;99.90
6098;DHT22;3077;50.922;6.584;2023-09-19T04:33:24;15.30;99.90
6098;DHT22;3077;50.922;6.584;2023-09-19T04:35:50;15.20;99.90
6098;DHT22;3077;50.922;6.584;2023-09-19T04:38:17;15.20;99.90
6098;DHT22;3077;50.922;6.584;2023-09-19T04:40:44;15.20;99.90
6098;DHT22;3077;50.922;6.584;2023-09-19T04:43:10;15.20;99.90
6098;DHT22;3077;50.922;6.584;2023-09-19T04:45:35;15.20;99.90
6098;DHT22;3077;50.922;6.584;2023-09-19T04:48:03;15.20;99.90
6098;DHT22;3077;50.922;6.584;2023-09-19T04:50:29;15.10;99.90
6098;DHT22;3077;50.922;6.584;2023-09-19T04:52:55;15.20;99.90
6098;DHT22;3077;50.922;6.584;2023-09-19T04:55:20;15.10;99.90
6098;DHT22;3077;50.922;6.584;2023-09-19T04:57:47;15.10;99.90
6098;DHT22;3077;50.922;6.584;2023-09-19T05:00:15;15.10;99.90
6098;DHT22;3077;50.922;6.584;2023-09-19T05:02:42;15.10;99.90
6098;DHT22;3077;50.922;6.584;2023-09-19T05:05:08;15.00;99.90
6098;DHT22;3077;50.922;6.584;2023-09-19T05:07:36;15.10;99.90
6098;DHT22;3077;50.922;6.584;2023-09-19T05:10:02;15.10;99.90
6098;DHT22;3077;50.922;6.584;2023-09-19T05:12:32;15.10;99.90
6098;DHT22;3077;50.922;6.584;2023-09-19T05:14:57;15.10;99.90
6098;DHT22;3077;50.922;6.584;2023-09-19T05:17:23;15.10;99.90
6098;DHT22;3077;50.922;6.584;2023-09-19T05:19:50;15.10;99.90
6098;DHT22;3077;50.922;6.584;2023-09-19T05:22:15;15.10;99.90
6098;DHT22;3077;50.922;6.584;2023-09-19T05:24:42;15.10;99.90
6098;DHT22;3077;50.922;6.584;2023-09-19T05:27:09;15.10;99.90
6098;DHT22;3077;50.922;6.584;2023-09-19T05:29:34;15.20;99.90
6098;DHT22;3077;50.922;6.584;2023-09-19T05:32:00;15.10;99.90
6098;DHT22;3077;50.922;6.584;2023-09-19T05:34:25;15.20;99.90
6098;DHT22;3077;50.922;6.584;2023-09-19T05:36:55;15.10;99.90
6098;DHT22;3077;50.922;6.584;2023-09-19T05:39:21;15.20;99.90
6098;DHT22;3077;50.922;6.584;2023-09-19T05:41:48;15.20;99.90
6098;DHT22;3077;50.922;6.584;2023-09-19T05:44:13;15.10;99.90
6098;DHT22;3077;50.922;6.584;2023-09-19T05:46:42;15.10;99.90
6098;DHT22;3077;50.922;6.584;2023-09-19T05:49:07;15.10;99.90
6098;DHT22;3077;50.922;6.584;2023-09-19T05:51:33;15.10;99.90
6098;DHT22;3077;50.922;6.584;2023-09-19T05:54:01;15.00;99.90
6098;DHT22;3077;50.922;6.584;2023-09-19T05:56:26;15.10;99.90
6098;DHT22;3077;50.922;6.584;2023-09-19T05:58:52;15.10;99.90
6098;DHT22;3077;50.922;6.584;2023-09-19T06:01:19;15.00;99.90
6098;DHT22;3077;50.922;6.584;2023-09-19T06:03:44;15.10;99.90
6098;DHT22;3077;50.922;6.584;2023-09-19T06:06:10;15.10;99.90
6098;DHT22;3077;50.922;6.584;2023-09-19T06:08:35;15.10;99.90
6098;DHT22;3077;50.922;6.584;2023-09-19T06:11:01;15.10;99.90
6098;DHT22;3077;50.922;6.584;2023-09-19T06:13:30;15.10;99.90
6098;DHT22;3077;50.922;6.584;2023-09-19T06:15:59;15.10;99.90
6098;DHT22;3077;50.922;6.584;2023-09-19T06:18:25;15.20;99.90
6098;DHT22;3077;50.922;6.584;2023-09-19T06:20:52;15.20;99.90
6098;DHT22;3077;50.922;6.584;2023-09-19T06:23:18;15.20;99.90
6098;DHT22;3077;50.922;6.584;2023-09-19T06:25:45;15.20;99.90
6098;DHT22;3077;50.922;6.584;2023-09-19T06:28:10;15.30;99.90
6098;DHT22;3077;50.922;6.584;2023-09-19T06:30:42;15.60;99.90
6098;DHT22;3077;50.922;6.584;2023-09-19T06:33:07;15.30;99.90
6098;DHT22;3077;50.922;6.584;2023-09-19T06:35:34;15.30;99.90
6098;DHT22;3077;50.922;6.584;2023-09-19T06:38:03;15.40;99.90
6098;DHT22;3077;50.922;6.584;2023-09-19T06:40:29;15.50;99.90
6098;DHT22;3077;50.922;6.584;2023-09-19T06:42:56;15.50;99.90
6098;DHT22;3077;50.922;6.584;2023-09-19T06:45:22;15.50;99.90
6098;DHT22;3077;50.922;6.584;2023-09-19T06:47:50;15.60;99.90
6098;DHT22;3077;50.922;6.584;2023-09-19T06:50:17;15.60;99.90
6098;DHT22;3077;50.922;6.584;2023-09-19T06:52:44;15.70;99.90
6098;DHT22;3077;50.922;6.584;2023-09-19T06:55:11;15.60;99.90
6098;DHT22;3077;50.922;6.584;2023-09-19T06:57:39;15.70;99.90
6098;DHT22;3077;50.922;6.584;2023-09-19T07:00:06;15.70;99.90
6098;DHT22;3077;50.922;6.584;2023-09-19T07:02:44;15.70;99.90
6098;DHT22;3077;50.922;6.584;2023-09-19T07:05:10;15.70;99.90
6098;DHT22;3077;50.922;6.584;2023-09-19T07:07:36;15.80;99.90
6098;DHT22;3077;50.922;6.584;2023-09-19T07:10:05;15.80;99.90
6098;DHT22;3077;50.922;6.584;2023-09-19T07:12:31;15.80;99.90
6098;DHT22;3077;50.922;6.584;2023-09-19T07:14:58;15.90;99.90
6098;DHT22;3077;50.922;6.584;2023-09-19T07:17:23;16.00;99.90
6098;DHT22;3077;50.922;6.584;2023-09-19T07:19:49;16.00;99.90
6098;DHT22;3077;50.922;6.584;2023-09-19T07:22:15;16.00;99.90
6098;DHT22;3077;50.922;6.584;2023-09-19T07:24:41;16.10;99.90
6098;DHT22;3077;50.922;6.584;2023-09-19T07:27:07;16.10;99.90
6098;DHT22;3077;50.922;6.584;2023-09-19T07:29:32;16.10;99.90
6098;DHT22;3077;50.922;6.584;2023-09-19T07:31:58;16.20;99.90
6098;DHT22;3077;50.922;6.584;2023-09-19T07:34:23;16.30;99.90
6098;DHT22;3077;50.922;6.584;2023-09-19T07:36:49;16.50;99.90
6098;DHT22;3077;50.922;6.584;2023-09-19T07:39:15;16.40;99.90
6098;DHT22;3077;50.922;6.584;2023-09-19T07:41:41;16.40;99.90
6098;DHT22;3077;50.922;6.584;2023-09-19T07:44:07;16.50;99.90
6098;DHT22;3077;50.922;6.584;2023-09-19T07:46:33;16.60;99.90
6098;DHT22;3077;50.922;6.584;2023-09-19T07:48:58;16.60;99.90
6098;DHT22;3077;50.922;6.584;2023-09-19T07:51:25;16.60;99.90
6098;DHT22;3077;50.922;6.584;2023-09-19T07:53:52;16.70;99.90
6098;DHT22;3077;50.922;6.584;2023-09-19T07:56:18;16.70;99.90
6098;DHT22;3077;50.922;6.584;2023-09-19T07:58:46;16.70;99.90
6098;DHT22;3077;50.922;6.584;2023-09-19T08:01:12;16.80;99.90
6098;DHT22;3077;50.922;6.584;2023-09-19T08:03:39;16.80;99.90
6098;DHT22;3077;50.922;6.584;2023-09-19T08:06:09;16.90;99.90
6098;DHT22;3077;50.922;6.584;2023-09-19T08:08:36;16.90;99.90
6098;DHT22;3077;50.922;6.584;2023-09-19T08:11:05;17.00;99.90
6098;DHT22;3077;50.922;6.584;2023-09-19T08:13:38;17.10;99.90
6098;DHT22;3077;50.922;6.584;2023-09-19T08:16:12;17.10;99.90
6098;DHT22;3077;50.922;6.584;2023-09-19T08:18:38;17.10;99.90
6098;DHT22;3077;50.922;6.584;2023-09-19T08:21:06;17.20;99.90
6098;DHT22;3077;50.922;6.584;2023-09-19T08:23:39;17.30;99.90
6098;DHT22;3077;50.922;6.584;2023-09-19T08:26:05;17.30;99.90
6098;DHT22;3077;50.922;6.584;2023-09-19T08:28:37;17.40;99.90
6098;DHT22;3077;50.922;6.584;2023-09-19T08:31:07;17.50;99.90
6098;DHT22;3077;50.922;6.584;2023-09-19T08:33:34;17.60;99.90
6098;DHT22;3077;50.922;6.584;2023-09-19T08:36:04;17.60;99.90
6098;DHT22;3077;50.922;6.584;2023-09-19T08:38:34;17.70;99.90
6098;DHT22;3077;50.922;6.584;2023-09-19T08:41:00;17.70;99.90
6098;DHT22;3077;50.922;6.584;2023-09-19T08:43:29;17.60;99.90
6098;DHT22;3077;50.922;6.584;2023-09-19T08:46:15;17.70;99.90
6098;DHT22;3077;50.922;6.584;2023-09-19T08:48:50;17.80;99.90
6098;DHT22;3077;50.922;6.584;2023-09-19T08:51:30;17.70;99.90
6098;DHT22;3077;50.922;6.584;2023-09-19T08:54:06;17.80;99.90
6098;DHT22;3077;50.922;6.584;2023-09-19T08:56:32;17.90;99.90
6098;DHT22;3077;50.922;6.584;2023-09-19T08:59:03;17.90;99.90
6098;DHT22;3077;50.922;6.584;2023-09-19T09:01:35;17.90;99.90
6098;DHT22;3077;50.922;6.584;2023-09-19T09:04:02;18.00;99.90
6098;DHT22;3077;50.922;6.584;2023-09-19T09:06:29;18.00;99.90
6098;DHT22;3077;50.922;6.584;2023-09-19T09:08:55;18.10;99.90
6098;DHT22;3077;50.922;6.584;2023-09-19T09:11:21;18.20;99.90
6098;DHT22;3077;50.922;6.584;2023-09-19T09:13:48;18.20;99.90
6098;DHT22;3077;50.922;6.584;2023-09-19T09:16:14;18.20;99.90
6098;DHT22;3077;50.922;6.584;2023-09-19T09:18:47;18.30;99.90
6098;DHT22;3077;50.922;6.584;2023-09-19T09:21:20;18.40;99.90
6098;DHT22;3077;50.922;6.584;2023-09-19T09:23:47;18.50;99.90
6098;DHT22;3077;50.922;6.584;2023-09-19T09:26:13;18.50;99.90
6098;DHT22;3077;50.922;6.584;2023-09-19T09:28:45;18.50;99.90
6098;DHT22;3077;50.922;6.584;2023-09-19T09:31:24;18.70;99.90
6098;DHT22;3077;50.922;6.584;2023-09-19T09:33:56;18.80;99.90
6098;DHT22;3077;50.922;6.584;2023-09-19T09:36:39;18.80;99.90
6098;DHT22;3077;50.922;6.584;2023-09-19T09:39:07;18.90;99.90
6098;DHT22;3077;50.922;6.584;2023-09-19T09:41:44;18.90;99.90
6098;DHT22;3077;50.922;6.584;2023-09-19T09:44:16;18.90;99.90
6098;DHT22;3077;50.922;6.584;2023-09-19T09:46:52;18.90;99.90
6098;DHT22;3077;50.922;6.584;2023-09-19T09:49:25;19.00;99.90
6098;DHT22;3077;50.922;6.584;2023-09-19T09:54:31;19.20;99.90
6098;DHT22;3077;50.922;6.584;2023-09-19T09:57:06;19.20;99.90
6098;DHT22;3077;50.922;6.584;2023-09-19T09:59:59;19.20;99.90
6098;DHT22;3077;50.922;6.584;2023-09-19T10:02:45;19.30;99.90
6098;DHT22;3077;50.922;6.584;2023-09-19T10:05:18;19.20;99.90
6098;DHT22;3077;50.922;6.584;2023-09-19T10:07:53;19.30;99.90
6098;DHT22;3077;50.922;6.584;2023-09-19T10:10:39;19.30;99.90
6098;DHT22;3077;50.922;6.584;2023-09-19T10:13:06;19.20;99.90
6098;DHT22;3077;50.922;6.584;2023-09-19T10:15:33;19.30;99.90
6098;DHT22;3077;50.922;6.584;2023-09-19T10:18:05;19.50;99.90
6098;DHT22;3077;50.922;6.584;2023-09-19T10:20:33;19.70;99.90
6098;DHT22;3077;50.922;6.584;2023-09-19T10:23:08;19.70;99.90
6098;DHT22;3077;50.922;6.584;2023-09-19T10:25:37;20.00;99.90
6098;DHT22;3077;50.922;6.584;2023-09-19T10:28:06;20.10;99.90
6098;DHT22;3077;50.922;6.584;2023-09-19T10:30:37;20.00;99.90
6098;DHT22;3077;50.922;6.584;2023-09-19T10:33:04;19.90;99.90
6098;DHT22;3077;50.922;6.584;2023-09-19T10:35:34;19.90;99.90
6098;DHT22;3077;50.922;6.584;2023-09-19T10:38:06;19.90;99.90
6098;DHT22;3077;50.922;6.584;2023-09-19T10:40:33;19.90;99.90
6098;DHT22;3077;50.922;6.584;2023-09-19T10:43:03;19.90;99.90
6098;DHT22;3077;50.922;6.584;2023-09-19T10:45:34;19.80;99.90
6098;DHT22;3077;50.922;6.584;2023-09-19T10:48:01;19.80;99.90
6098;DHT22;3077;50.922;6.584;2023-09-19T10:51:14;19.80;99.40
6098;DHT22;3077;50.922;6.584;2023-09-19T10:53:20;19.90;99.90
6098;DHT22;3077;50.922;6.584;2023-09-19T10:55:56;20.00;99.90
6098;DHT22;3077;50.922;6.584;2023-09-19T10:58:27;20.00;98.50
6098;DHT22;3077;50.922;6.584;2023-09-19T11:01:00;20.10;97.90
6098;DHT22;3077;50.922;6.584;2023-09-19T11:03:32;20.10;96.60
6098;DHT22;3077;50.922;6.584;2023-09-19T11:06:06;20.00;97.00
6098;DHT22;3077;50.922;6.584;2023-09-19T11:14:29;20.20;98.20
6098;DHT22;3077;50.922;6.584;2023-09-19T11:30:33;20.50;91.60
6098;DHT22;3077;50.922;6.584;2023-09-19T11:46:27;21.60;73.20
6098;DHT22;3077;50.922;6.584;2023-09-19T11:48:53;22.00;71.70
6098;DHT22;3077;50.922;6.584;2023-09-19T11:51:20;22.50;69.00
6098;DHT22;3077;50.922;6.584;2023-09-19T11:53:50;22.70;58.60
6098;DHT22;3077;50.922;6.584;2023-09-19T11:56:22;22.70;53.20
6098;DHT22;3077;50.922;6.584;2023-09-19T11:58:50;22.70;52.10
6098;DHT22;3077;50.922;6.584;2023-09-19T12:01:32;22.90;50.60
6098;DHT22;3077;50.922;6.584;2023-09-19T12:04:00;22.80;48.00
6098;DHT22;3077;50.922;6.584;2023-09-19T12:06:28;23.00;50.80
6098;DHT22;3077;50.922;6.584;2023-09-19T12:08:55;23.10;47.70
6098;DHT22;3077;50.922;6.584;2023-09-19T12:11:23;23.50;44.70
6098;DHT22;3077;50.922;6.584;2023-09-19T12:13:48;23.70;45.10
6098;DHT22;3077;50.922;6.584;2023-09-19T12:16:19;24.20;40.00
6098;DHT22;3077;50.922;6.584;2023-09-19T12:18:48;24.50;37.60
6098;DHT22;3077;50.922;6.584;2023-09-19T12:21:30;24.50;33.80
6098;DHT22;3077;50.922;6.584;2023-09-19T12:26:37;24.70;28.50
6098;DHT22;3077;50.922;6.584;2023-09-19T12:29:03;24.90;26.60
6098;DHT22;3077;50.922;6.584;2023-09-19T12:31:30;24.90;25.50
6098;DHT22;3077;50.922;6.584;2023-09-19T12:34:01;25.00;21.90
6098;DHT22;3077;50.922;6.584;2023-09-19T12:36:27;24.80;22.30
6098;DHT22;3077;50.922;6.584;2023-09-19T12:38:56;24.80;21.00
6098;DHT22;3077;50.922;6.584;2023-09-19T12:41:25;25.10;19.60
6098;DHT22;3077;50.922;6.584;2023-09-19T12:43:52;25.30;18.70
6098;DHT22;3077;50.922;6.584;2023-09-19T12:46:22;25.50;18.60
6098;DHT22;3077;50.922;6.584;2023-09-19T12:49:19;25.30;17.20
6098;DHT22;3077;50.922;6.584;2023-09-19T12:51:49;24.90;15.90
6098;DHT22;3077;50.922;6.584;2023-09-19T12:54:15;25.20;18.20
6098;DHT22;3077;50.922;6.584;2023-09-19T12:56:45;25.90;17.60
6098;DHT22;3077;50.922;6.584;2023-09-19T12:59:14;26.40;12.50
6098;DHT22;3077;50.922;6.584;2023-09-19T13:01:41;26.20;11.50
6098;DHT22;3077;50.922;6.584;2023-09-19T13:04:17;25.90;10.80
6098;DHT22;3077;50.922;6.584;2023-09-19T13:06:50;25.70;11.70
6098;DHT22;3077;50.922;6.584;2023-09-19T13:09:16;25.50;10.70
6098;DHT22;3077;50.922;6.584;2023-09-19T13:11:43;25.20;11.50
6098;DHT22;3077;50.922;6.584;2023-09-19T13:25:20;25.20;12.40
6098;DHT22;3077;50.922;6.584;2023-09-19T13:27:57;25.50;13.90
6098;DHT22;3077;50.922;6.584;2023-09-19T13:30:27;25.70;12.70
6098;DHT22;3077;50.922;6.584;2023-09-19T13:33:10;26.20;11.20
6098;DHT22;3077;50.922;6.584;2023-09-19T13:35:36;26.70;9.90
6098;DHT22;3077;50.922;6.584;2023-09-19T13:38:08;27.20;8.10
6098;DHT22;3077;50.922;6.584;2023-09-19T13:40:40;27.50;7.30
6098;DHT22;3077;50.922;6.584;2023-09-19T13:43:09;27.40;6.40
6098;DHT22;3077;50.922;6.584;2023-09-19T13:45:36;27.40;6.10
6098;DHT22;3077;50.922;6.584;2023-09-19T13:48:02;27.10;6.50
6098;DHT22;3077;50.922;6.584;2023-09-19T13:50:28;27.10;7.70
6098;DHT22;3077;50.922;6.584;2023-09-19T13:52:55;26.20;8.30
6098;DHT22;3077;50.922;6.584;2023-09-19T13:55:21;25.30;10.00
6098;DHT22;3077;50.922;6.584;2023-09-19T13:57:50;24.80;11.40
6098;DHT22;3077;50.922;6.584;2023-09-19T14:00:18;24.60;11.20
6098;DHT22;3077;50.922;6.584;2023-09-19T14:02:43;24.40;13.70
6098;DHT22;3077;50.922;6.584;2023-09-19T14:05:12;24.30;15.40
6098;DHT22;3077;50.922;6.584;2023-09-19T14:07:42;24.30;14.90
6098;DHT22;3077;50.922;6.584;2023-09-19T14:10:09;24.50;15.10
6098;DHT22;3077;50.922;6.584;2023-09-19T14:12:36;25.00;14.00
6098;DHT22;3077;50.922;6.584;2023-09-19T14:15:05;25.90;13.50
6098;DHT22;3077;50.922;6.584;2023-09-19T14:17:32;25.90;10.50
6098;DHT22;3077;50.922;6.584;2023-09-19T14:19:58;25.50;10.40
6098;DHT22;3077;50.922;6.584;2023-09-19T14:22:24;25.90;10.60
6098;DHT22;3077;50.922;6.584;2023-09-19T14:24:49;26.00;9.40
6098;DHT22;3077;50.922;6.584;2023-09-19T14:27:15;26.20;9.70
6098;DHT22;3077;50.922;6.584;2023-09-19T14:29:40;26.60;7.40
6098;DHT22;3077;50.922;6.584;2023-09-19T14:32:06;27.00;7.20
6098;DHT22;3077;50.922;6.584;2023-09-19T14:34:32;26.80;6.80
6098;DHT22;3077;50.922;6.584;2023-09-19T14:36:58;27.20;6.90
6098;DHT22;3077;50.922;6.584;2023-09-19T14:39:24;27.30;5.40
6098;DHT22;3077;50.922;6.584;2023-09-19T14:41:50;27.00;5.00
6098;DHT22;3077;50.922;6.584;2023-09-19T14:44:16;26.60;6.70
6098;DHT22;3077;50.922;6.584;2023-09-19T14:46:42;26.30;7.80
6098;DHT22;3077;50.922;6.584;2023-09-19T14:49:10;25.70;8.00
6098;DHT22;3077;50.922;6.584;2023-09-19T14:51:37;24.60;9.50
6098;DHT22;3077;50.922;6.584;2023-09-19T14:54:05;24.20;13.10
6098;DHT22;3077;50.922;6.584;2023-09-19T14:56:32;24.00;13.00
6098;DHT22;3077;50.922;6.584;2023-09-19T14:58:58;24.20;14.00
6098;DHT22;3077;50.922;6.584;2023-09-19T15:01:24;24.20;13.60
6098;DHT22;3077;50.922;6.584;2023-09-19T15:03:49;24.00;13.90
6098;DHT22;3077;50.922;6.584;2023-09-19T15:06:15;23.60;14.10
6098;DHT22;3077;50.922;6.584;2023-09-19T15:08:43;22.90;15.90
6098;DHT22;3077;50.922;6.584;2023-09-19T15:13:41;22.60;19.40
6098;DHT22;3077;50.922;6.584;2023-09-19T15:16:08;22.70;18.90
6098;DHT22;3077;50.922;6.584;2023-09-19T15:18:38;22.60;18.60
6098;DHT22;3077;50.922;6.584;2023-09-19T15:21:04;22.40;20.00
6098;DHT22;3077;50.922;6.584;2023-09-19T15:23:31;22.30;20.00
6098;DHT22;3077;50.922;6.584;2023-09-19T15:25:58;22.30;20.60
6098;DHT22;3077;50.922;6.584;2023-09-19T15:28:23;22.20;21.50
6098;DHT22;3077;50.922;6.584;2023-09-19T15:31:10;22.30;23.10
6098;DHT22;3077;50.922;6.584;2023-09-19T15:33:36;22.30;22.90
6098;DHT22;3077;50.922;6.584;2023-09-19T15:36:09;22.30;22.80
6098;DHT22;3077;50.922;6.584;2023-09-19T15:38:55;22.30;23.30
6098;DHT22;3077;50.922;6.584;2023-09-19T15:41:22;22.30;24.20
6098;DHT22;3077;50.922;6.584;2023-09-19T15:43:48;22.10;25.30
6098;DHT22;3077;50.922;6.584;2023-09-19T15:46:13;22.50;24.30
6098;DHT22;3077;50.922;6.584;2023-09-19T15:48:40;23.10;23.30
6098;DHT22;3077;50.922;6.584;2023-09-19T15:51:06;23.40;22.90
6098;DHT22;3077;50.922;6.584;2023-09-19T15:53:48;23.80;21.20
6098;DHT22;3077;50.922;6.584;2023-09-19T15:56:14;23.70;20.90
6098;DHT22;3077;50.922;6.584;2023-09-19T15:58:44;23.70;20.90
6098;DHT22;3077;50.922;6.584;2023-09-19T16:01:10;23.20;21.50
6098;DHT22;3077;50.922;6.584;2023-09-19T16:03:37;22.70;22.60
6098;DHT22;3077;50.922;6.584;2023-09-19T16:06:10;22.30;24.90
6098;DHT22;3077;50.922;6.584;2023-09-19T16:08:42;22.10;25.90
6098;DHT22;3077;50.922;6.584;2023-09-19T16:11:08;22.00;26.80
6098;DHT22;3077;50.922;6.584;2023-09-19T16:13:36;21.80;27.40
6098;DHT22;3077;50.922;6.584;2023-09-19T16:16:01;21.80;28.60
6098;DHT22;3077;50.922;6.584;2023-09-19T16:18:27;21.60;30.00
6098;DHT22;3077;50.922;6.584;2023-09-19T16:20:53;21.70;31.00
6098;DHT22;3077;50.922;6.584;2023-09-19T16:23:18;22.00;32.00
6098;DHT22;3077;50.922;6.584;2023-09-19T16:25:46;22.50;31.10
6098;DHT22;3077;50.922;6.584;2023-09-19T16:28:12;23.00;27.10
6098;DHT22;3077;50.922;6.584;2023-09-19T16:30:38;23.20;26.10
6098;DHT22;3077;50.922;6.584;2023-09-19T16:33:04;23.70;25.60
6098;DHT22;3077;50.922;6.584;2023-09-19T16:35:30;24.30;22.40
6098;DHT22;3077;50.922;6.584;2023-09-19T16:37:56;24.50;22.20
6098;DHT22;3077;50.922;6.584;2023-09-19T16:40:22;24.80;21.00
6098;DHT22;3077;50.922;6.584;2023-09-19T16:42:47;24.80;19.50
6098;DHT22;3077;50.922;6.584;2023-09-19T16:45:13;24.10;21.10
6098;DHT22;3077;50.922;6.584;2023-09-19T16:47:38;23.40;22.20
6098;DHT22;3077;50.922;6.584;2023-09-19T16:50:04;23.00;24.60
6098;DHT22;3077;50.922;6.584;2023-09-19T16:52:31;22.40;25.60
6098;DHT22;3077;50.922;6.584;2023-09-19T16:54:57;22.20;27.90
6098;DHT22;3077;50.922;6.584;2023-09-19T16:57:22;22.00;28.60
6098;DHT22;3077;50.922;6.584;2023-09-19T16:59:48;21.90;29.00
6098;DHT22;3077;50.922;6.584;2023-09-19T17:02:15;21.80;30.10
6098;DHT22;3077;50.922;6.584;2023-09-19T17:04:42;21.50;31.60
6098;DHT22;3077;50.922;6.584;2023-09-19T17:07:08;21.30;33.00
6098;DHT22;3077;50.922;6.584;2023-09-19T17:09:35;21.00;34.40